createdAt,value
2018-11-25T00:00:31.656Z,18.63
2018-11-25T00:03:00.603Z,19.77
2018-11-25T00:05:29.479Z,20.30
2018-11-25T00:07:58.388Z,20.33
2018-11-25T00:10:27.332Z,20.60
2018-11-25T00:12:56.246Z,20.10
2018-11-25T00:15:25.212Z,18.80
2018-11-25T00:17:54.127Z,19.83
2018-11-25T00:20:23.071Z,20.23
2018-11-25T00:22:51.979Z,19.50
2018-11-25T00:25:20.896Z,19.47
2018-11-25T00:27:49.792Z,20.77
2018-11-25T00:30:18.715Z,21.03
2018-11-25T00:32:47.605Z,27.27
2018-11-25T00:35:17.210Z,21.97
2018-11-25T00:37:48.308Z,21.27
2018-11-25T00:40:15.673Z,21.70
2018-11-25T00:42:45.125Z,21.13
2018-11-25T00:45:15.299Z,28.05
2018-11-25T00:47:44.210Z,22.20
2018-11-25T00:50:13.917Z,19.40
2018-11-25T00:52:42.845Z,21.93
2018-11-25T00:55:18.119Z,22.20
2018-11-25T00:57:47.026Z,21.23
2018-11-25T01:00:19.675Z,20.60
2018-11-25T01:02:49.541Z,20.53
2018-11-25T01:05:18.477Z,20.20
2018-11-25T01:07:47.363Z,19.10
2018-11-25T01:10:16.810Z,19.47
2018-11-25T01:12:46.252Z,18.73
2018-11-25T01:15:16.031Z,25.80
2018-11-25T01:17:45.000Z,20.33
2018-11-25T01:20:18.040Z,18.40
2018-11-25T01:22:46.955Z,18.57
2018-11-25T01:25:15.905Z,19.77
2018-11-25T01:27:44.789Z,17.90
2018-11-25T01:30:17.663Z,17.27
2018-11-25T01:32:46.544Z,18.40
2018-11-25T01:35:15.531Z,18.10
2018-11-25T01:37:44.451Z,19.63
2018-11-25T01:40:17.330Z,18.67
2018-11-25T01:42:46.269Z,18.43
2018-11-25T01:45:16.038Z,19.20
2018-11-25T01:47:44.998Z,17.40
2018-11-25T01:50:14.861Z,24.75
2018-11-25T01:52:43.777Z,24.77
2018-11-25T01:55:16.610Z,19.40
2018-11-25T01:57:45.601Z,17.80
2018-11-25T02:00:21.230Z,18.30
2018-11-25T02:02:50.273Z,17.17
2018-11-25T02:05:19.247Z,16.97
2018-11-25T02:07:48.069Z,16.87
2018-11-25T02:10:17.888Z,17.07
2018-11-25T02:12:46.804Z,17.10
2018-11-25T02:15:16.487Z,17.87
2018-11-25T02:17:45.387Z,17.40
2018-11-25T02:20:18.842Z,16.90
2018-11-25T02:22:47.778Z,22.98
2018-11-25T02:25:16.695Z,18.87
2018-11-25T02:27:45.626Z,18.30
2018-11-25T02:30:18.151Z,18.40
2018-11-25T02:32:47.347Z,20.03
2018-11-25T02:35:16.798Z,18.23
2018-11-25T02:37:45.820Z,19.90
2018-11-25T02:40:15.578Z,19.43
2018-11-25T02:42:44.485Z,19.80
2018-11-25T02:45:17.255Z,21.00
2018-11-25T02:47:46.175Z,18.93
2018-11-25T02:50:32.816Z,21.00
2018-11-25T02:53:02.926Z,20.43
2018-11-25T02:55:31.809Z,20.67
2018-11-25T02:58:00.959Z,19.53
2018-11-25T03:00:29.633Z,22.17
2018-11-25T03:02:58.572Z,21.23
2018-11-25T03:05:27.493Z,21.53
2018-11-25T03:07:56.409Z,20.87
2018-11-25T03:10:25.356Z,21.33
2018-11-25T03:12:54.297Z,21.83
2018-11-25T03:15:23.326Z,22.17
2018-11-25T03:17:52.168Z,29.20
2018-11-25T03:20:21.078Z,22.97
2018-11-25T03:22:50.054Z,22.17
2018-11-25T03:25:20.004Z,22.47
2018-11-25T03:27:48.984Z,23.23
2018-11-25T03:30:21.697Z,22.73
2018-11-25T03:32:54.177Z,22.80
2018-11-25T03:35:23.117Z,21.43
2018-11-25T03:37:52.016Z,23.20
2018-11-25T03:40:20.912Z,29.07
2018-11-25T03:42:49.815Z,21.67
2018-11-25T03:45:22.338Z,22.40
2018-11-25T03:47:51.247Z,24.00
2018-11-25T03:50:20.184Z,22.97
2018-11-25T03:52:49.072Z,23.40
2018-11-25T03:55:18.226Z,23.77
2018-11-25T03:57:47.146Z,22.63
2018-11-25T04:00:22.566Z,22.80
2018-11-25T04:02:54.841Z,22.77
2018-11-25T04:05:23.742Z,32.98
2018-11-25T04:07:52.630Z,26.63
2018-11-25T04:10:21.523Z,24.87
2018-11-25T04:12:50.451Z,24.87
2018-11-25T04:15:19.942Z,23.50
2018-11-25T04:17:49.031Z,22.27
2018-11-25T04:20:21.332Z,22.30
2018-11-25T04:22:50.590Z,23.60
2018-11-25T04:25:19.430Z,23.37
2018-11-25T04:27:48.313Z,22.83
2018-11-25T04:30:20.688Z,24.17
2018-11-25T04:32:50.604Z,24.67
2018-11-25T04:35:19.530Z,24.80
2018-11-25T04:37:48.492Z,25.70
2018-11-25T04:40:18.250Z,35.68
2018-11-25T04:42:47.158Z,29.13
2018-11-25T04:45:16.783Z,26.97
2018-11-25T04:47:46.536Z,27.30
2018-11-25T04:50:21.712Z,26.20
2018-11-25T04:52:50.634Z,27.17
2018-11-25T04:55:19.576Z,27.43
2018-11-25T04:57:54.238Z,26.30
2018-11-25T05:00:23.187Z,37.93
2018-11-25T05:02:52.265Z,29.93
2018-11-25T05:05:21.199Z,29.03
2018-11-25T05:07:50.185Z,27.47
2018-11-25T05:10:19.184Z,27.17
2018-11-25T05:12:48.162Z,27.30
2018-11-25T05:15:20.850Z,27.90
2018-11-25T05:17:49.924Z,28.57
2018-11-25T05:20:19.564Z,27.90
2018-11-25T05:22:48.510Z,27.57
2018-11-25T05:25:18.283Z,27.00
2018-11-25T05:27:47.171Z,26.70
2018-11-25T05:30:16.962Z,27.23
2018-11-25T05:32:45.869Z,28.00
2018-11-25T05:35:18.431Z,28.47
2018-11-25T05:37:47.419Z,26.73
2018-11-25T05:40:16.615Z,26.13
2018-11-25T05:42:45.601Z,28.57
2018-11-25T05:45:15.629Z,36.67
2018-11-25T05:47:44.474Z,28.43
2018-11-25T05:50:14.328Z,26.90
2018-11-25T05:52:43.271Z,26.93
2018-11-25T05:55:12.698Z,34.27
2018-11-25T05:57:41.695Z,28.60
2018-11-25T06:00:26.150Z,25.87
2018-11-25T06:02:55.079Z,25.60
2018-11-25T06:05:23.978Z,24.37
2018-11-25T06:07:52.910Z,24.07
2018-11-25T06:10:21.782Z,24.03
2018-11-25T06:12:50.742Z,26.33
2018-11-25T06:15:19.650Z,24.43
2018-11-25T06:17:48.548Z,24.63
2018-11-25T06:20:17.922Z,30.37
2018-11-25T06:22:47.073Z,23.13
2018-11-25T06:25:19.927Z,22.50
2018-11-25T06:27:48.899Z,21.13
2018-11-25T06:30:21.079Z,21.20
2018-11-25T06:32:50.016Z,20.90
2018-11-25T06:35:19.679Z,21.10
2018-11-25T06:37:48.639Z,21.53
2018-11-25T06:40:20.752Z,20.83
2018-11-25T06:42:49.700Z,21.00
2018-11-25T06:45:22.605Z,22.57
2018-11-25T06:47:51.552Z,20.80
2018-11-25T06:50:20.437Z,20.67
2018-11-25T06:52:49.337Z,21.70
2018-11-25T06:55:18.222Z,22.77
2018-11-25T06:57:47.171Z,21.67
2018-11-25T07:00:19.833Z,21.87
2018-11-25T07:02:48.735Z,20.97
2018-11-25T07:05:17.629Z,21.33
2018-11-25T07:07:46.567Z,21.03
2018-11-25T07:10:19.827Z,21.43
2018-11-25T07:12:50.162Z,20.17
2018-11-25T07:15:19.307Z,27.58
2018-11-25T07:17:48.193Z,22.93
2018-11-25T07:20:18.000Z,21.47
2018-11-25T07:22:46.901Z,21.27
2018-11-25T07:25:22.978Z,21.47
2018-11-25T07:27:51.953Z,22.30
2018-11-25T07:30:27.951Z,21.13
2018-11-25T07:32:56.941Z,21.10
2018-11-25T07:35:26.964Z,19.90
2018-11-25T07:37:55.894Z,20.13
2018-11-25T07:40:25.431Z,21.23
2018-11-25T07:42:54.393Z,21.13
2018-11-25T07:45:30.054Z,28.07
2018-11-25T07:47:53.280Z,22.17
2018-11-25T07:50:22.154Z,21.23
2018-11-25T07:52:51.617Z,21.07
2018-11-25T07:55:24.321Z,21.27
2018-11-25T07:57:54.239Z,20.93
2018-11-25T08:00:24.134Z,19.77
2018-11-25T08:02:53.084Z,21.37
2018-11-25T08:05:28.426Z,21.87
2018-11-25T08:07:57.342Z,21.13
2018-11-25T08:10:26.331Z,21.00
2018-11-25T08:12:56.524Z,28.30
2018-11-25T08:15:24.248Z,22.43
2018-11-25T08:17:53.138Z,19.97
2018-11-25T08:20:22.734Z,21.43
2018-11-25T08:22:51.709Z,20.30
2018-11-25T08:25:23.633Z,19.47
2018-11-25T08:27:52.546Z,20.37
2018-11-25T08:30:24.637Z,20.80
2018-11-25T08:32:53.647Z,20.80
2018-11-25T08:35:22.574Z,20.10
2018-11-25T08:37:51.470Z,20.80
2018-11-25T08:40:24.373Z,19.00
2018-11-25T08:42:53.614Z,27.20
2018-11-25T08:45:22.576Z,21.43
2018-11-25T08:47:51.559Z,21.87
2018-11-25T08:50:20.669Z,21.70
2018-11-25T08:52:53.482Z,22.00
2018-11-25T08:55:25.983Z,28.75
2018-11-25T08:57:55.204Z,21.90
2018-11-25T09:00:25.016Z,21.83
2018-11-25T09:02:55.114Z,22.10
2018-11-25T09:05:24.006Z,22.63
2018-11-25T09:07:52.931Z,22.37
2018-11-25T09:10:22.398Z,22.53
2018-11-25T09:12:55.892Z,21.17
2018-11-25T09:15:28.858Z,27.80
2018-11-25T09:17:57.877Z,22.17
2018-11-25T09:20:26.796Z,22.90
2018-11-25T09:22:55.754Z,20.80
2018-11-25T09:25:31.490Z,21.50
2018-11-25T09:28:01.489Z,22.97
2018-11-25T09:30:31.451Z,22.80
2018-11-25T09:33:00.356Z,22.43
2018-11-25T09:35:29.378Z,23.13
2018-11-25T09:37:58.163Z,20.87
2018-11-25T09:40:27.941Z,22.43
2018-11-25T09:42:56.836Z,29.85
2018-11-25T09:45:25.769Z,23.63
2018-11-25T09:47:54.680Z,21.90
2018-11-25T09:50:24.167Z,22.50
2018-11-25T09:52:53.094Z,21.47
2018-11-25T09:55:23.087Z,21.93
2018-11-25T09:58:01.553Z,22.27
2018-11-25T10:00:34.296Z,22.13
2018-11-25T10:03:04.269Z,21.00
2018-11-25T10:05:33.193Z,22.93
2018-11-25T10:08:02.092Z,23.23
2018-11-25T10:10:30.971Z,24.77
2018-11-25T10:12:59.901Z,23.97
2018-11-25T10:15:29.461Z,24.37
2018-11-25T10:17:59.859Z,24.13
2018-11-25T10:20:28.593Z,34.08
2018-11-25T10:22:57.507Z,26.03
2018-11-25T10:25:26.420Z,24.23
2018-11-25T10:27:55.318Z,24.80
2018-11-25T10:30:28.452Z,24.23
2018-11-25T10:33:04.716Z,24.07
2018-11-25T10:35:33.645Z,22.70
2018-11-25T10:38:02.569Z,25.77
2018-11-25T10:40:31.495Z,23.63
2018-11-25T10:43:00.423Z,24.23
2018-11-25T10:45:29.315Z,23.63
2018-11-25T10:47:58.554Z,24.63
2018-11-25T10:50:27.480Z,25.13
2018-11-25T10:52:56.487Z,26.10
2018-11-25T10:55:25.305Z,26.80
2018-11-25T10:57:54.418Z,26.13
2018-11-25T11:00:45.394Z,26.53
2018-11-25T11:03:32.150Z,25.40
2018-11-25T11:06:18.519Z,24.37
2018-11-25T11:08:47.439Z,24.83
2018-11-25T11:11:16.383Z,25.10
2018-11-25T11:13:45.282Z,24.53
2018-11-25T11:16:14.161Z,23.77
2018-11-25T11:18:43.087Z,23.83
2018-11-25T11:21:11.977Z,25.63
2018-11-25T11:23:40.911Z,26.40
2018-11-25T11:26:28.116Z,34.25
2018-11-25T11:28:57.045Z,27.77
2018-11-25T11:31:25.928Z,27.00
2018-11-25T11:33:54.844Z,27.73
2018-11-25T11:36:23.743Z,36.35
2018-11-25T11:38:53.194Z,29.47
2018-11-25T11:41:22.094Z,29.07
2018-11-25T11:43:51.127Z,28.33
2018-11-25T11:46:20.026Z,27.67
2018-11-25T11:48:48.983Z,28.00
2018-11-25T11:51:25.326Z,28.57
2018-11-25T11:53:46.852Z,28.20
2018-11-25T11:56:15.869Z,29.70
2018-11-25T11:58:44.816Z,28.23
2018-11-25T12:01:13.706Z,28.07
2018-11-25T12:03:42.622Z,27.60
2018-11-25T12:06:11.529Z,29.00
2018-11-25T12:08:40.418Z,36.45
2018-11-25T12:11:09.623Z,30.77
2018-11-25T12:13:38.517Z,28.17
2018-11-25T12:16:07.752Z,29.47
2018-11-25T12:18:36.674Z,27.57
2018-11-25T12:21:05.897Z,37.50
2018-11-25T12:23:34.774Z,29.70
2018-11-25T12:26:03.728Z,29.13
2018-11-25T12:28:32.631Z,28.93
2018-11-25T12:31:01.549Z,29.93
2018-11-25T12:33:30.430Z,30.87
2018-11-25T12:35:59.335Z,29.13
2018-11-25T12:38:28.207Z,29.47
2018-11-25T12:40:57.113Z,28.37
2018-11-25T12:43:26.052Z,29.07
2018-11-25T12:45:54.975Z,27.97
2018-11-25T12:48:23.995Z,27.73
2018-11-25T12:50:52.828Z,29.33
2018-11-25T12:53:21.761Z,27.50
2018-11-25T12:55:50.704Z,29.13
2018-11-25T12:58:19.636Z,29.60
2018-11-25T13:00:49.341Z,27.20
2018-11-25T13:03:18.234Z,29.80
2018-11-25T13:05:47.138Z,28.97
2018-11-25T13:08:16.065Z,28.63
2018-11-25T13:10:44.929Z,28.40
2018-11-25T13:13:13.796Z,29.47
2018-11-25T13:15:42.708Z,30.00
2018-11-25T13:18:11.804Z,29.27
2018-11-25T13:20:40.683Z,28.87
2018-11-25T13:23:09.786Z,27.67
2018-11-25T13:25:38.724Z,28.03
2018-11-25T13:28:07.964Z,27.00
2018-11-25T13:30:36.838Z,26.23
2018-11-25T13:33:06.869Z,27.97
2018-11-25T13:35:37.494Z,28.17
2018-11-25T13:38:07.107Z,26.03
2018-11-25T13:40:35.995Z,27.40
2018-11-25T13:43:05.189Z,28.70
2018-11-25T13:45:34.077Z,36.65
2018-11-25T13:48:03.036Z,28.23
2018-11-25T13:50:31.965Z,29.33
2018-11-25T13:53:00.882Z,27.37
2018-11-25T13:55:29.793Z,37.90
2018-11-25T13:57:58.678Z,30.37
2018-11-25T14:00:54.805Z,28.77
2018-11-25T14:03:28.469Z,27.53
2018-11-25T14:05:57.386Z,27.07
2018-11-25T14:08:26.251Z,27.70
2018-11-25T14:11:12.021Z,28.83
2018-11-25T14:13:40.868Z,30.30
2018-11-25T14:16:11.985Z,28.80
2018-11-25T14:18:40.959Z,28.80
2018-11-25T14:21:09.926Z,30.50
2018-11-25T14:23:38.828Z,31.43
2018-11-25T14:26:24.842Z,31.13
2018-11-25T14:28:53.749Z,29.43
2018-11-25T14:31:22.642Z,32.67
2018-11-25T14:33:51.543Z,33.30
2018-11-25T14:36:20.450Z,32.20
2018-11-25T14:38:49.332Z,34.43
2018-11-25T14:41:18.245Z,32.93
2018-11-25T14:43:47.175Z,34.27
2018-11-25T14:46:16.136Z,33.27
2018-11-25T14:48:45.116Z,34.50
2018-11-25T14:51:14.080Z,36.17
2018-11-25T14:53:42.975Z,31.73
2018-11-25T14:56:11.910Z,32.83
2018-11-25T14:58:40.899Z,33.03
2018-11-25T15:01:09.817Z,31.27
2018-11-25T15:03:38.728Z,28.77
2018-11-25T15:06:07.803Z,43.10
2018-11-25T15:08:36.684Z,34.07
2018-11-25T15:11:05.708Z,31.03
2018-11-25T15:13:34.653Z,42.50
2018-11-25T15:16:04.641Z,34.27
2018-11-25T15:18:33.567Z,31.37
2018-11-25T15:21:02.654Z,30.07
2018-11-25T15:23:31.596Z,32.77
2018-11-25T15:26:00.487Z,30.97
2018-11-25T15:28:29.394Z,32.00
2018-11-25T15:30:58.379Z,32.17
2018-11-25T15:33:27.226Z,31.33
2018-11-25T15:35:56.161Z,32.33
2018-11-25T15:38:25.040Z,42.55
2018-11-25T15:40:53.947Z,34.60
2018-11-25T15:43:22.927Z,35.20
2018-11-25T15:45:51.952Z,33.90
2018-11-25T15:48:26.875Z,34.07
2018-11-25T15:50:54.911Z,34.27
2018-11-25T15:53:23.804Z,36.17
2018-11-25T15:55:57.412Z,33.90
2018-11-25T15:58:26.415Z,34.83
2018-11-25T16:00:55.300Z,33.27
2018-11-25T16:03:24.188Z,36.07
2018-11-25T16:05:58.820Z,34.50
2018-11-25T16:08:27.720Z,34.47
2018-11-25T16:10:56.704Z,36.23
2018-11-25T16:13:25.613Z,36.73
2018-11-25T16:15:54.510Z,35.37
2018-11-25T16:18:23.429Z,34.90
2018-11-25T16:20:52.329Z,35.80
2018-11-25T16:23:21.262Z,36.67
2018-11-25T16:25:55.164Z,47.40
2018-11-25T16:28:29.479Z,39.27
2018-11-25T16:30:58.403Z,35.53
2018-11-25T16:33:27.329Z,35.13
2018-11-25T16:35:56.222Z,36.67
2018-11-25T16:38:25.128Z,37.07
2018-11-25T16:40:54.040Z,36.93
2018-11-25T16:43:22.963Z,36.07
2018-11-25T16:45:51.878Z,36.93
2018-11-25T16:48:20.794Z,36.00
2018-11-25T16:50:49.725Z,37.70
2018-11-25T16:53:18.603Z,48.70
2018-11-25T16:55:47.509Z,39.33
2018-11-25T16:58:16.483Z,35.30
2018-11-25T17:00:45.406Z,36.33
2018-11-25T17:03:14.279Z,35.80
2018-11-25T17:05:44.992Z,36.20
2018-11-25T17:08:25.536Z,35.80
2018-11-25T17:10:54.462Z,35.10
2018-11-25T17:13:23.390Z,36.97
2018-11-25T17:15:52.293Z,36.03
2018-11-25T17:18:21.216Z,35.83
2018-11-25T17:20:50.125Z,35.90
2018-11-25T17:23:19.052Z,33.03
2018-11-25T17:25:48.012Z,34.77
2018-11-25T17:28:16.958Z,36.20
2018-11-25T17:30:45.883Z,34.50
2018-11-25T17:33:14.791Z,33.43
2018-11-25T17:35:43.727Z,35.40
2018-11-25T17:38:12.632Z,35.60
2018-11-25T17:40:41.559Z,36.37
2018-11-25T17:43:15.544Z,34.80
2018-11-25T17:45:44.490Z,37.53
2018-11-25T17:48:13.339Z,35.30
2018-11-25T17:50:42.324Z,45.52
2018-11-25T17:53:11.251Z,36.73
2018-11-25T17:55:40.170Z,34.27
2018-11-25T17:58:09.094Z,35.23
2018-11-25T18:00:43.895Z,36.03
2018-11-25T18:03:20.074Z,33.60
2018-11-25T18:05:49.019Z,34.10
2018-11-25T18:08:17.967Z,35.23
2018-11-25T18:10:46.887Z,34.70
2018-11-25T18:13:16.911Z,33.57
2018-11-25T18:15:45.932Z,34.87
2018-11-25T18:18:19.777Z,31.07
2018-11-25T18:20:53.602Z,30.73
2018-11-25T18:23:22.623Z,32.37
2018-11-25T18:25:51.393Z,31.40
2018-11-25T18:28:20.400Z,32.00
2018-11-25T18:30:49.272Z,29.77
2018-11-25T18:33:18.193Z,41.73
2018-11-25T18:35:47.126Z,31.13
2018-11-25T18:38:16.055Z,30.10
2018-11-25T18:40:45.004Z,30.73
2018-11-25T18:43:13.947Z,29.87
2018-11-25T18:45:42.910Z,29.27
2018-11-25T18:48:13.309Z,28.47
2018-11-25T18:50:42.276Z,31.47
2018-11-25T18:53:11.749Z,41.83
2018-11-25T18:55:39.612Z,31.20
2018-11-25T18:58:08.503Z,29.93
2018-11-25T19:00:58.350Z,28.63
2018-11-25T19:03:27.337Z,28.73
2018-11-25T19:05:56.195Z,28.93
2018-11-25T19:08:25.086Z,29.67
2018-11-25T19:10:54.040Z,28.07
2018-11-25T19:13:22.973Z,29.17
2018-11-25T19:15:51.919Z,28.93
2018-11-25T19:18:21.091Z,28.07
2018-11-25T19:20:49.989Z,28.37
2018-11-25T19:23:18.947Z,28.37
2018-11-25T19:25:47.825Z,34.30
2018-11-25T19:28:16.736Z,28.23
2018-11-25T19:30:45.637Z,27.53
2018-11-25T19:33:14.536Z,37.03
2018-11-25T19:35:43.459Z,29.20
2018-11-25T19:38:12.384Z,36.95
2018-11-25T19:40:41.262Z,28.10
2018-11-25T19:43:10.187Z,28.83
2018-11-25T19:45:39.111Z,28.73
2018-11-25T19:48:08.059Z,29.43
2018-11-25T19:50:38.163Z,28.47
2018-11-25T19:53:08.941Z,27.80
2018-11-25T19:55:37.977Z,28.13
2018-11-25T19:58:07.257Z,28.83
2018-11-25T20:00:36.226Z,26.87
2018-11-25T20:03:05.548Z,27.10
2018-11-25T20:05:34.468Z,28.33
2018-11-25T20:08:03.428Z,28.53
2018-11-25T20:10:32.368Z,27.43
2018-11-25T20:13:01.252Z,36.23
2018-11-25T20:15:30.201Z,28.10
2018-11-25T20:17:59.121Z,27.47
2018-11-25T20:20:28.064Z,29.20
2018-11-25T20:22:56.933Z,28.93
2018-11-25T20:25:25.836Z,28.83
2018-11-25T20:27:55.784Z,27.27
2018-11-25T20:30:29.175Z,28.20
2018-11-25T20:33:15.573Z,35.90
2018-11-25T20:35:44.661Z,29.10
2018-11-25T20:38:31.604Z,28.60
2018-11-25T20:41:00.482Z,28.50
2018-11-25T20:43:29.437Z,27.40
2018-11-25T20:46:16.192Z,29.87
2018-11-25T20:48:45.074Z,26.97
2018-11-25T20:51:13.977Z,30.50
2018-11-25T20:53:59.577Z,29.53
2018-11-25T20:56:28.426Z,27.90
2018-11-25T20:58:57.333Z,28.20
2018-11-25T21:01:26.248Z,29.73
2018-11-25T21:03:55.138Z,29.97
2018-11-25T21:06:24.095Z,29.00
2018-11-25T21:08:53.007Z,31.27
2018-11-25T21:11:21.925Z,68.12
2018-11-25T21:13:50.896Z,42.33
2018-11-25T21:16:19.822Z,62.43
2018-11-25T21:18:48.741Z,32.37
2018-11-25T21:21:17.660Z,32.73
2018-11-25T21:23:46.562Z,43.45
2018-11-25T21:26:15.454Z,32.67
2018-11-25T21:28:44.358Z,31.43
2018-11-25T21:31:13.257Z,34.13
2018-11-25T21:33:42.209Z,30.03
2018-11-25T21:36:11.115Z,34.13
2018-11-25T21:38:40.068Z,36.30
2018-11-25T21:41:09.040Z,44.97
2018-11-25T21:43:37.972Z,76.57
2018-11-25T21:46:06.925Z,35.80
2018-11-25T21:48:35.852Z,38.87
2018-11-25T21:51:04.774Z,34.37
2018-11-25T21:53:33.724Z,87.20
2018-11-25T21:56:02.688Z,34.33
2018-11-25T21:58:31.536Z,41.27
2018-11-25T22:01:00.454Z,30.50
2018-11-25T22:03:29.360Z,32.77
2018-11-25T22:05:58.291Z,36.20
2018-11-25T22:08:27.208Z,35.33
2018-11-25T22:10:56.117Z,42.27
2018-11-25T22:13:25.023Z,33.43
2018-11-25T22:15:53.934Z,32.00
2018-11-25T22:18:22.871Z,35.27
2018-11-25T22:20:51.778Z,34.27
2018-11-25T22:23:20.702Z,32.73
2018-11-25T22:25:49.638Z,31.63
2018-11-25T22:28:18.567Z,32.30
2018-11-25T22:30:47.444Z,32.20
2018-11-25T22:33:16.355Z,29.13
2018-11-25T22:35:45.306Z,30.50
2018-11-25T22:38:14.265Z,30.23
2018-11-25T22:40:43.216Z,31.37
2018-11-25T22:43:12.088Z,41.20
2018-11-25T22:45:40.998Z,32.73
2018-11-25T22:48:10.025Z,31.73
2018-11-25T22:50:38.945Z,30.00
2018-11-25T22:53:07.955Z,30.00
2018-11-25T22:55:36.922Z,29.90
2018-11-25T22:58:05.990Z,29.80
2018-11-25T23:00:36.536Z,31.30
2018-11-25T23:03:05.875Z,31.53
2018-11-25T23:05:55.501Z,41.35
2018-11-25T23:08:24.396Z,32.67
2018-11-25T23:10:53.296Z,31.37
2018-11-25T23:13:22.240Z,31.57
2018-11-25T23:15:51.234Z,41.15
2018-11-25T23:18:20.161Z,31.03
2018-11-25T23:20:49.134Z,31.07
2018-11-25T23:23:18.055Z,31.03
2018-11-25T23:25:46.985Z,29.93
2018-11-25T23:28:15.942Z,39.88
2018-11-25T23:30:44.871Z,31.90
2018-11-25T23:33:13.889Z,40.30
2018-11-25T23:35:42.742Z,31.33
2018-11-25T23:38:11.659Z,29.80
2018-11-25T23:40:40.548Z,30.17
2018-11-25T23:43:09.511Z,30.83
2018-11-25T23:45:38.448Z,30.53
2018-11-25T23:48:07.504Z,29.87
2018-11-25T23:50:36.332Z,30.33
2018-11-25T23:53:06.438Z,28.50
2018-11-25T23:55:35.369Z,30.73
2018-11-25T23:58:04.296Z,30.23
